Time;durP1;ratioP1;P1;durP2;ratioP2;P2;SDS_P1;SDS_P2;PMS_P1;PMS_P2;Temp;Humidity;BMP_temperature;BMP_pressure;BME280_temperature;BME280_humidity;BME280_pressure;Samples;Min_cycle;Max_cycle;Signal;HPM_P1;HPM_P2
2022/12/22 03:26:18;;;;;;;;;;;;;;;;;;4454065;32;20011;-77
2022/12/22 03:28:43;;;;;;;;;;;;;;;;;;4453276;32;19933;-79
2022/12/22 03:31:08;;;;;;;;;;;;;;;;;;4453248;32;19996;-78
2022/12/22 03:33:33;;;;;;;;;;;;;;;;;;4439483;32;20377;-78
2022/12/22 03:35:58;;;;;;;;;;;;;;;;;;4453453;32;19977;-78
2022/12/22 03:38:24;;;;;;;;;;;;;;;;;;4455553;32;20267;-79
2022/12/22 03:40:49;;;;;;;;;;;;;;;;;;4455403;32;19964;-78
2022/12/22 03:48:38;;;;;;;;;;;;;;;;;;4453253;32;19942;-78
2022/12/22 03:51:03;;;;;;;;;;;;;;;;;;4452853;32;19941;-78
2022/12/22 03:53:29;;;;;;;;;;;;;;;;;;4453423;32;19937;-79
2022/12/22 03:55:54;;;;;;;;;;;;;;;;;;4453976;32;19971;-79
2022/12/22 03:58:19;;;;;;;;;;;;;;;;;;4439674;32;19967;-79
2022/12/22 04:00:44;;;;;;;;;;;;;;;;;;4455665;32;19936;-79
2022/12/22 04:03:09;;;;;;;;;;;;;;;;;;4458137;32;19986;-79
2022/12/22 04:05:34;;;;;;;;;;;;;;;;;;4458137;32;19932;-78
2022/12/22 04:07:59;;;;;;;;;;;;;;;;;;4457321;32;19972;-77
2022/12/22 04:13:08;;;;;;;;;;;;;;;;;;4457693;32;19950;-80
2022/12/22 04:15:33;;;;;;;;;;;;;;;;;;4456750;32;19992;-80
2022/12/22 04:17:58;;;;;;;;;;;;;;;;;;4457314;32;19929;-79
2022/12/22 04:20:25;;;;;;;;;;;;;;;;;;4457871;32;19944;-79
2022/12/22 04:22:50;;;;;;;;;;;;;;;;;;4457788;32;19945;-79
2022/12/22 04:25:15;;;;;;;;;;;;;;;;;;4452664;32;19932;-80
2022/12/22 04:27:40;;;;;;;;;;;;;;;;;;4452741;32;19985;-80
2022/12/22 04:30:06;;;;;;;;;;;;;;;;;;4438083;32;19941;-80
2022/12/22 04:32:31;;;;;;;;;;;;;;;;;;4453055;32;19936;-79
2022/12/22 04:34:56;;;;;;;;;;;;;;;;;;4453547;32;19996;-80
2022/12/22 04:37:21;;;;;;;;;;;;;;;;;;4454522;32;19978;-79
2022/12/22 04:39:46;;;;;;;;;;;;;;;;;;4438975;32;19937;-80
2022/12/22 04:42:11;;;;;;;;;;;;;;;;;;4453453;32;20013;-79
2022/12/22 04:44:36;;;;;;;;;;;;;;;;;;4440068;32;19937;-80
2022/12/22 04:47:01;;;;;;;;;;;;;;;;;;4438350;32;19947;-79
2022/12/22 04:49:26;;;;;;;;;;;;;;;;;;4438799;32;19936;-80
2022/12/22 04:51:51;;;;;;;;;;;;;;;;;;4438853;32;19943;-79
2022/12/22 04:54:16;;;;;;;;;;;;;;;;;;4453455;32;19952;-79
2022/12/22 04:56:42;;;;;;;;;;;;;;;;;;4452732;32;19951;-79
2022/12/22 04:59:07;;;;;;;;;;;;;;;;;;4438540;32;19947;-79
2022/12/22 05:01:32;;;;;;;;;;;;;;;;;;4452368;32;19937;-79
2022/12/22 05:03:57;;;;;;;;;;;;;;;;;;4451884;32;19973;-80
2022/12/22 05:06:22;;;;;;;;;;;;;;;;;;4453439;32;19964;-79
2022/12/22 05:08:47;;;;;;;;;;;;;;;;;;4451983;32;19984;-80
2022/12/22 05:11:12;;;;;;;;;;;;;;;;;;4451902;32;19936;-80
2022/12/22 05:13:37;;;;;;;;;;;;;;;;;;4451651;32;19941;-81
2022/12/22 05:16:02;;;;;;;;;;;;;;;;;;4451883;32;20042;-79
2022/12/22 05:18:28;;;;;;;;;;;;;;;;;;4452238;32;19937;-81
2022/12/22 05:20:53;;;;;;;;;;;;;;;;;;4451686;32;19981;-80
2022/12/22 05:23:18;;;;;;;;;;;;;;;;;;4452153;32;20211;-81
2022/12/22 05:25:43;;;;;;;;;;;;;;;;;;4437140;32;19956;-80
2022/12/22 05:28:09;;;;;;;;;;;;;;;;;;4451373;32;20250;-81
2022/12/22 05:30:34;;;;;;;;;;;;;;;;;;4438031;32;20346;-80
2022/12/22 05:32:59;;;;;;;;;;;;;;;;;;4451304;32;20334;-81
2022/12/22 05:35:24;;;;;;;;;;;;;;;;;;4451814;32;19937;-81
2022/12/22 05:37:49;;;;;;;;;;;;;;;;;;4452060;32;20035;-81
2022/12/22 05:40:14;;;;;;;;;;;;;;;;;;4454948;32;19947;-80
2022/12/22 05:42:40;;;;;;;;;;;;;;;;;;4454897;32;19933;-81
2022/12/22 05:45:05;;;;;;;;;;;;;;;;;;4440483;32;20379;-82
2022/12/22 05:47:30;;;;;;;;;;;;;;;;;;4440815;32;20008;-81
2022/12/22 05:49:55;;;;;;;;;;;;;;;;;;4456015;32;19972;-82
2022/12/22 05:52:20;;;;;;;;;;;;;;;;;;4454984;32;19940;-81
2022/12/22 05:54:45;;;;;;;;;;;;;;;;;;4454916;32;19936;-81
2022/12/22 05:57:10;;;;;;;;;;;;;;;;;;4455452;32;19951;-81
2022/12/22 05:59:35;;;;;;;;;;;;;;;;;;4455304;32;19933;-81
2022/12/22 06:02:00;;;;;;;;;;;;;;;;;;4454227;32;19933;-81
2022/12/22 06:04:26;;;;;;;;;;;;;;;;;;4454939;32;19937;-81
2022/12/22 06:06:51;;;;;;;;;;;;;;;;;;4454282;32;19947;-82
2022/12/22 06:09:16;;;;;;;;;;;;;;;;;;4454966;32;19932;-81
2022/12/22 06:11:41;;;;;;;;;;;;;;;;;;4454165;32;19932;-81
2022/12/22 06:14:06;;;;;;;;;;;;;;;;;;4454828;32;19937;-81
2022/12/22 06:16:31;;;;;;;;;;;;;;;;;;4454302;32;20363;-80
2022/12/22 06:18:56;;;;;;;;;;;;;;;;;;4456264;32;19973;-81
2022/12/22 06:21:21;;;;;;;;;;;;;;;;;;4455747;32;19973;-81
2022/12/22 06:23:47;;;;;;;;;;;;;;;;;;4455020;32;19967;-81
2022/12/22 06:26:12;;;;;;;;;;;;;;;;;;4454597;32;19948;-81
2022/12/22 06:28:37;;;;;;;;;;;;;;;;;;4454582;32;19932;-82
2022/12/22 06:31:02;;;;;;;;;;;;;;;;;;4454406;32;20291;-82
2022/12/22 06:33:27;;;;;;;;;;;;;;;;;;4439617;32;19973;-82
2022/12/22 06:35:52;;;;;;;;;;;;;;;;;;4454941;32;19988;-83
2022/12/22 06:38:17;;;;;;;;;;;;;;;;;;4441018;32;20015;-82
2022/12/22 06:40:42;;;;;;;;;;;;;;;;;;4452665;32;19933;-83
2022/12/22 06:43:07;;;;;;;;;;;;;;;;;;4453643;32;19984;-82
2022/12/22 06:45:33;;;;;;;;;;;;;;;;;;4453253;32;20271;-82
2022/12/22 06:47:58;;;;;;;;;;;;;;;;;;4439144;32;19959;-82
2022/12/22 06:50:23;;;;;;;;;;;;;;;;;;4451413;32;19932;-83
2022/12/22 06:52:48;;;;;;;;;;;;;;;;;;4452773;32;19937;-84
2022/12/22 06:55:13;;;;;;;;;;;;;;;;;;4451351;32;19981;-81
2022/12/22 06:57:38;;;;;;;;;;;;;;;;;;4451519;32;20265;-82
2022/12/22 07:00:03;;;;;;;;;;;;;;;;;;4437816;32;20250;-82
2022/12/22 07:02:28;;;;;;;;;;;;;;;;;;4451797;32;19996;-82
2022/12/22 07:04:53;;;;;;;;;;;;;;;;;;4452361;32;19932;-83
2022/12/22 07:07:18;;;;;;;;;;;;;;;;;;4452294;32;20016;-82
2022/12/22 07:09:44;;;;;;;;;;;;;;;;;;4439810;32;19951;-83
2022/12/22 07:12:09;;;;;;;;;;;;;;;;;;4438457;32;19976;-83
2022/12/22 07:14:34;;;;;;;;;;;;;;;;;;4440391;32;20344;-83
2022/12/22 07:16:59;;;;;;;;;;;;;;;;;;4455168;32;19936;-83
2022/12/22 07:19:24;;;;;;;;;;;;;;;;;;4455868;32;19947;-83
2022/12/22 07:21:50;;;;;;;;;;;;;;;;;;4454211;32;20006;-82
2022/12/22 07:24:21;;;;;;;;;;;;;;;;;;4441242;32;19987;-82
2022/12/22 07:26:46;;;;;;;;;;;;;;;;;;4458350;32;19932;-83
2022/12/22 07:29:12;;;;;;;;;;;;;;;;;;4461628;32;20013;-82
2022/12/22 07:31:37;;;;;;;;;;;;;;;;;;4462506;32;20343;-82
2022/12/22 07:34:02;;;;;;;;;;;;;;;;;;4460002;32;19932;-82
2022/12/22 07:36:27;;;;;;;;;;;;;;;;;;4458274;32;19955;-82
2022/12/22 07:38:52;;;;;;;;;;;;;;;;;;4440185;32;19937;-83
2022/12/22 07:44:01;;;;;;;;;;;;;;;;;;4451796;32;19959;-82
2022/12/22 07:46:26;;;;;;;;;;;;;;;;;;4451520;32;19937;-81
2022/12/22 07:51:35;;;;;;;;;;;;;;;;;;4453518;32;20267;-81
2022/12/22 07:54:00;;;;;;;;;;;;;;;;;;4439223;32;19952;-81
2022/12/22 07:56:25;;;;;;;;;;;;;;;;;;4454163;32;19940;-81
2022/12/22 07:58:50;;;;;;;;;;;;;;;;;;4453008;32;19963;-81
2022/12/22 08:01:15;;;;;;;;;;;;;;;;;;4453349;32;19928;-81
2022/12/22 08:03:41;;;;;;;;;;;;;;;;;;4453015;32;19963;-80
2022/12/22 08:06:06;;;;;;;;;;;;;;;;;;4453030;32;20268;-80
2022/12/22 08:08:31;;;;;;;;;;;;;;;;;;4451901;32;20000;-80
2022/12/22 08:10:56;;;;;;;;;;;;;;;;;;4451375;32;20279;-81
2022/12/22 08:13:21;;;;;;;;;;;;;;;;;;4451781;32;20354;-80
2022/12/22 08:15:46;;;;;;;;;;;;;;;;;;4451314;32;19940;-80
2022/12/22 08:18:11;;;;;;;;;;;;;;;;;;4452734;32;19932;-79
2022/12/22 08:20:36;;;;;;;;;;;;;;;;;;4452655;32;19971;-80
2022/12/22 08:23:02;;;;;;;;;;;;;;;;;;4438346;32;19936;-80
2022/12/22 08:25:27;;;;;;;;;;;;;;;;;;4438315;32;19971;-80
2022/12/22 08:27:52;;;;;;;;;;;;;;;;;;4452327;32;19981;-80
2022/12/22 08:30:17;;;;;;;;;;;;;;;;;;4452877;32;19998;-81
2022/12/22 08:32:42;;;;;;;;;;;;;;;;;;4454064;32;19936;-79
2022/12/22 08:35:07;;;;;;;;;;;;;;;;;;4452462;32;20073;-81
2022/12/22 08:37:34;;;;;;;;;;;;;;;;;;4455286;32;19940;-81
2022/12/22 08:39:59;;;;;;;;;;;;;;;;;;4452555;32;20012;-82
2022/12/22 08:42:24;;;;;;;;;;;;;;;;;;4451974;32;19932;-81
2022/12/22 08:44:52;;;;;;;;;;;;;;;;;;4438997;32;19979;-81
2022/12/22 08:47:17;;;;;;;;;;;;;;;;;;4452603;32;20306;-81
2022/12/22 08:49:42;;;;;;;;;;;;;;;;;;4452643;32;20399;-81
2022/12/22 08:52:07;;;;;;;;;;;;;;;;;;4454020;32;19970;-81
2022/12/22 08:54:32;;;;;;;;;;;;;;;;;;4437970;32;19936;-80
2022/12/22 08:56:58;;;;;;;;;;;;;;;;;;4452153;32;19975;-81
2022/12/22 08:59:23;;;;;;;;;;;;;;;;;;4451671;32;19932;-81
2022/12/22 09:01:49;;;;;;;;;;;;;;;;;;4454106;32;19937;-81
2022/12/22 09:04:14;;;;;;;;;;;;;;;;;;4452121;32;19932;-81
2022/12/22 09:06:39;;;;;;;;;;;;;;;;;;4451455;32;19947;-81
2022/12/22 09:09:04;;;;;;;;;;;;;;;;;;4452391;32;19940;-81
2022/12/22 09:11:29;;;;;;;;;;;;;;;;;;4452238;32;20431;-80
2022/12/22 09:13:54;;;;;;;;;;;;;;;;;;4437469;32;20340;-81
2022/12/22 09:16:19;;;;;;;;;;;;;;;;;;4452090;32;19955;-81
2022/12/22 09:18:45;;;;;;;;;;;;;;;;;;4452459;32;20336;-80
2022/12/22 09:21:10;;;;;;;;;;;;;;;;;;4453094;32;20316;-79
2022/12/22 09:23:35;;;;;;;;;;;;;;;;;;4439637;32;19955;-81
2022/12/22 09:26:00;;;;;;;;;;;;;;;;;;4439562;32;19936;-81
2022/12/22 09:28:25;;;;;;;;;;;;;;;;;;4438232;32;19936;-80
2022/12/22 09:30:50;;;;;;;;;;;;;;;;;;4453506;32;19977;-80
2022/12/22 09:33:15;;;;;;;;;;;;;;;;;;4452383;32;19932;-79
2022/12/22 09:35:40;;;;;;;;;;;;;;;;;;4438194;32;19988;-79
2022/12/22 09:38:05;;;;;;;;;;;;;;;;;;4452742;32;19959;-80
2022/12/22 09:40:31;;;;;;;;;;;;;;;;;;4452997;32;19953;-80
2022/12/22 09:42:56;;;;;;;;;;;;;;;;;;4452412;32;19936;-80
2022/12/22 09:45:21;;;;;;;;;;;;;;;;;;4453070;32;20022;-79
2022/12/22 09:47:52;;;;;;;;;;;;;;;;;;4452033;32;19941;-80
2022/12/22 09:50:17;;;;;;;;;;;;;;;;;;4452921;32;19944;-78
2022/12/22 09:52:43;;;;;;;;;;;;;;;;;;4438847;32;19929;-79
2022/12/22 09:55:08;;;;;;;;;;;;;;;;;;4452675;32;20043;-79
2022/12/22 09:57:33;;;;;;;;;;;;;;;;;;4454391;32;19997;-79
2022/12/22 09:59:58;;;;;;;;;;;;;;;;;;4439690;32;19964;-80
2022/12/22 10:02:24;;;;;;;;;;;;;;;;;;4438144;32;19943;-79
2022/12/22 10:04:49;;;;;;;;;;;;;;;;;;4437926;32;19936;-79
2022/12/22 10:07:14;;;;;;;;;;;;;;;;;;4437731;32;19941;-79
2022/12/22 10:09:39;;;;;;;;;;;;;;;;;;4452697;32;19932;-79
2022/12/22 10:12:04;;;;;;;;;;;;;;;;;;4440353;32;19941;-80
2022/12/22 10:14:29;;;;;;;;;;;;;;;;;;4452347;32;19937;-79
2022/12/22 10:16:54;;;;;;;;;;;;;;;;;;4452675;32;19940;-79
2022/12/22 10:19:19;;;;;;;;;;;;;;;;;;4452818;32;19941;-78
2022/12/22 10:21:44;;;;;;;;;;;;;;;;;;4452257;32;19937;-78
2022/12/22 10:24:10;;;;;;;;;;;;;;;;;;4454135;32;19964;-79
2022/12/22 10:26:35;;;;;;;;;;;;;;;;;;4454416;32;19971;-78
2022/12/22 10:29:00;;;;;;;;;;;;;;;;;;4453843;32;19985;-78
2022/12/22 10:31:25;;;;;;;;;;;;;;;;;;4455067;32;19953;-76
2022/12/22 10:33:50;;;;;;;;;;;;;;;;;;4439825;32;20284;-77
2022/12/22 10:36:15;;;;;;;;;;;;;;;;;;4455618;32;19951;-76
2022/12/22 10:38:40;;;;;;;;;;;;;;;;;;4455197;32;19971;-77
2022/12/22 10:41:05;;;;;;;;;;;;;;;;;;4455017;32;19932;-75
2022/12/22 10:43:31;;;;;;;;;;;;;;;;;;4455544;32;19994;-76
2022/12/22 10:45:56;;;;;;;;;;;;;;;;;;4442686;32;19937;-76
2022/12/22 10:48:21;;;;;;;;;;;;;;;;;;4458167;32;19944;-76
2022/12/22 10:50:47;;;;;;;;;;;;;;;;;;4440811;32;20235;-75
2022/12/22 10:53:12;;;;;;;;;;;;;;;;;;4459585;32;19937;-74
2022/12/22 10:55:38;;;;;;;;;;;;;;;;;;4459879;32;19945;-74
2022/12/22 10:58:03;;;;;;;;;;;;;;;;;;4459483;32;19985;-74
2022/12/22 11:00:28;;;;;;;;;;;;;;;;;;4446441;32;19936;-74
2022/12/22 11:02:53;;;;;;;;;;;;;;;;;;4460534;32;19948;-74
2022/12/22 11:05:18;;;;;;;;;;;;;;;;;;4457419;32;19948;-74
2022/12/22 11:07:44;;;;;;;;;;;;;;;;;;4455253;32;19940;-73
2022/12/22 11:10:09;;;;;;;;;;;;;;;;;;4453992;32;20025;-74
2022/12/22 11:12:34;;;;;;;;;;;;;;;;;;4454045;32;20347;-75
2022/12/22 11:14:59;;;;;;;;;;;;;;;;;;4454463;32;19936;-75
2022/12/22 11:17:24;;;;;;;;;;;;;;;;;;4454569;32;19951;-75
2022/12/22 11:19:49;;;;;;;;;;;;;;;;;;4440232;32;19968;-74
2022/12/22 11:22:14;;;;;;;;;;;;;;;;;;4453080;32;19932;-74
2022/12/22 11:24:39;;;;;;;;;;;;;;;;;;4452983;32;20003;-75
2022/12/22 11:27:05;;;;;;;;;;;;;;;;;;4452578;32;19956;-73
2022/12/22 11:29:30;;;;;;;;;;;;;;;;;;4453052;32;19959;-73
2022/12/22 11:31:55;;;;;;;;;;;;;;;;;;4454194;32;19933;-73
2022/12/22 11:34:20;;;;;;;;;;;;;;;;;;4438152;32;19978;-74
2022/12/22 11:36:45;;;;;;;;;;;;;;;;;;4452373;32;20310;-74
2022/12/22 11:39:10;;;;;;;;;;;;;;;;;;4453573;32;19964;-74
2022/12/22 11:41:35;;;;;;;;;;;;;;;;;;4452474;32;19971;-73
2022/12/22 11:44:00;;;;;;;;;;;;;;;;;;4452740;32;19932;-73
2022/12/22 11:46:25;;;;;;;;;;;;;;;;;;4452866;32;19943;-73
2022/12/22 11:48:51;;;;;;;;;;;;;;;;;;4453706;32;19967;-72
2022/12/22 11:51:16;;;;;;;;;;;;;;;;;;4452356;32;19932;-73
2022/12/22 11:53:41;;;;;;;;;;;;;;;;;;4453652;32;19941;-73
2022/12/22 11:56:06;;;;;;;;;;;;;;;;;;4438304;32;19960;-73
2022/12/22 11:58:31;;;;;;;;;;;;;;;;;;4452840;32;20354;-73
2022/12/22 12:00:56;;;;;;;;;;;;;;;;;;4452274;32;19969;-74
2022/12/22 12:03:21;;;;;;;;;;;;;;;;;;4452558;32;19956;-73
2022/12/22 12:05:46;;;;;;;;;;;;;;;;;;4452331;32;19947;-74
2022/12/22 12:08:11;;;;;;;;;;;;;;;;;;4439819;32;19984;-74
2022/12/22 12:10:36;;;;;;;;;;;;;;;;;;4452187;32;19932;-74
2022/12/22 12:13:02;;;;;;;;;;;;;;;;;;4452083;32;20307;-73
2022/12/22 12:15:27;;;;;;;;;;;;;;;;;;4453979;32;19961;-74
2022/12/22 12:17:52;;;;;;;;;;;;;;;;;;4452820;32;19932;-74
2022/12/22 12:20:17;;;;;;;;;;;;;;;;;;4437782;32;19948;-74
2022/12/22 12:22:42;;;;;;;;;;;;;;;;;;4452997;32;20272;-73
2022/12/22 12:25:10;;;;;;;;;;;;;;;;;;4452064;32;19941;-74
2022/12/22 12:27:35;;;;;;;;;;;;;;;;;;4438201;32;20254;-74
2022/12/22 12:30:01;;;;;;;;;;;;;;;;;;4452501;32;20296;-74
2022/12/22 12:32:26;;;;;;;;;;;;;;;;;;4453151;32;19956;-73
2022/12/22 12:34:51;;;;;;;;;;;;;;;;;;4454392;32;19955;-74
2022/12/22 12:37:16;;;;;;;;;;;;;;;;;;4457240;32;19936;-74
2022/12/22 12:39:41;;;;;;;;;;;;;;;;;;4455204;32;19933;-75
2022/12/22 12:42:06;;;;;;;;;;;;;;;;;;4454869;32;19945;-73
2022/12/22 12:44:31;;;;;;;;;;;;;;;;;;4440972;32;20317;-75
2022/12/22 12:46:58;;;;;;;;;;;;;;;;;;4455149;32;19932;-74
2022/12/22 12:49:23;;;;;;;;;;;;;;;;;;4454970;32;19982;-75
2022/12/22 12:51:48;;;;;;;;;;;;;;;;;;4454800;32;19947;-75
2022/12/22 12:54:14;;;;;;;;;;;;;;;;;;4455101;32;19947;-75
2022/12/22 12:56:39;;;;;;;;;;;;;;;;;;4453670;32;20036;-74
2022/12/22 12:59:04;;;;;;;;;;;;;;;;;;4453739;32;19940;-73
2022/12/22 13:01:29;;;;;;;;;;;;;;;;;;4453339;32;19932;-74
2022/12/22 13:03:54;;;;;;;;;;;;;;;;;;4452517;32;19977;-75
2022/12/22 13:06:19;;;;;;;;;;;;;;;;;;4453244;32;19940;-74
2022/12/22 13:08:44;;;;;;;;;;;;;;;;;;4451467;32;19932;-74
2022/12/22 13:11:09;;;;;;;;;;;;;;;;;;4451622;32;19937;-74
2022/12/22 13:13:34;;;;;;;;;;;;;;;;;;4451727;32;19943;-75
2022/12/22 13:16:09;;;;;;;;;;;;;;;;;;4452414;32;19941;-74
2022/12/22 13:18:34;;;;;;;;;;;;;;;;;;4437461;32;19942;-74
2022/12/22 13:20:59;;;;;;;;;;;;;;;;;;4451200;32;19976;-73
2022/12/22 13:23:25;;;;;;;;;;;;;;;;;;4451871;32;19948;-73
2022/12/22 13:25:51;;;;;;;;;;;;;;;;;;4452943;32;20337;-73
2022/12/22 13:28:17;;;;;;;;;;;;;;;;;;4452804;32;19948;-74
2022/12/22 13:30:42;;;;;;;;;;;;;;;;;;4439385;32;19940;-73
2022/12/22 13:33:07;;;;;;;;;;;;;;;;;;4440474;32;19937;-74
2022/12/22 13:35:32;;;;;;;;;;;;;;;;;;4452707;32;19944;-75
2022/12/22 13:37:57;;;;;;;;;;;;;;;;;;4438404;32;19976;-74
2022/12/22 13:40:36;;;;;;;;;;;;;;;;;;4452476;32;19944;-74
2022/12/22 13:43:01;;;;;;;;;;;;;;;;;;4453258;32;19996;-73
2022/12/22 13:45:27;;;;;;;;;;;;;;;;;;4452932;32;19940;-74
2022/12/22 13:47:52;;;;;;;;;;;;;;;;;;4437906;32;19971;-74
2022/12/22 13:50:17;;;;;;;;;;;;;;;;;;4452997;32;19932;-74
2022/12/22 13:52:42;;;;;;;;;;;;;;;;;;4452756;32;19936;-75
2022/12/22 13:55:07;;;;;;;;;;;;;;;;;;4437559;32;19940;-74
2022/12/22 13:57:32;;;;;;;;;;;;;;;;;;4452615;32;20282;-73
2022/12/22 13:59:57;;;;;;;;;;;;;;;;;;4455824;32;19947;-74
2022/12/22 14:02:23;;;;;;;;;;;;;;;;;;4454790;32;19937;-74
2022/12/22 14:04:48;;;;;;;;;;;;;;;;;;4454556;32;19947;-74
2022/12/22 14:07:13;;;;;;;;;;;;;;;;;;4454828;32;19943;-73
2022/12/22 14:09:38;;;;;;;;;;;;;;;;;;4455814;32;19985;-75
2022/12/22 14:12:03;;;;;;;;;;;;;;;;;;4454439;32;19944;-75
2022/12/22 14:14:28;;;;;;;;;;;;;;;;;;4440566;32;19949;-73
2022/12/22 14:16:53;;;;;;;;;;;;;;;;;;4454960;32;19933;-74
2022/12/22 14:19:18;;;;;;;;;;;;;;;;;;4454546;32;19988;-74
2022/12/22 14:21:43;;;;;;;;;;;;;;;;;;4455733;32;20323;-72
2022/12/22 14:24:09;;;;;;;;;;;;;;;;;;4456115;32;19946;-73
2022/12/22 14:26:34;;;;;;;;;;;;;;;;;;4440947;32;19948;-74
2022/12/22 14:28:59;;;;;;;;;;;;;;;;;;4456152;32;19968;-74
2022/12/22 14:31:24;;;;;;;;;;;;;;;;;;4454978;32;19946;-73
2022/12/22 14:33:49;;;;;;;;;;;;;;;;;;4455303;32;20087;-74
2022/12/22 14:36:15;;;;;;;;;;;;;;;;;;4454213;32;19940;-73
2022/12/22 14:38:40;;;;;;;;;;;;;;;;;;4454358;32;19952;-73
2022/12/22 14:41:05;;;;;;;;;;;;;;;;;;4454746;32;19932;-74
2022/12/22 14:43:30;;;;;;;;;;;;;;;;;;4454551;32;19971;-73
2022/12/22 14:45:55;;;;;;;;;;;;;;;;;;4454101;32;19932;-74
2022/12/22 14:48:20;;;;;;;;;;;;;;;;;;4454358;32;19968;-74
2022/12/22 14:50:46;;;;;;;;;;;;;;;;;;4439793;32;19936;-74
2022/12/22 14:53:11;;;;;;;;;;;;;;;;;;4439448;32;20249;-72
2022/12/22 14:55:36;;;;;;;;;;;;;;;;;;4454537;32;20334;-74
2022/12/22 14:58:01;;;;;;;;;;;;;;;;;;4454093;32;19956;-75
2022/12/22 15:00:26;;;;;;;;;;;;;;;;;;4454230;32;19933;-74
2022/12/22 15:02:52;;;;;;;;;;;;;;;;;;4455953;32;19932;-73
2022/12/22 15:05:17;;;;;;;;;;;;;;;;;;4455587;32;20244;-74
2022/12/22 15:07:42;;;;;;;;;;;;;;;;;;4442490;32;19943;-76
2022/12/22 15:10:07;;;;;;;;;;;;;;;;;;4456958;32;20279;-74
2022/12/22 15:12:32;;;;;;;;;;;;;;;;;;4454743;32;19944;-75
2022/12/22 15:14:57;;;;;;;;;;;;;;;;;;4454552;32;19985;-75
2022/12/22 15:17:22;;;;;;;;;;;;;;;;;;4453927;32;19937;-75
2022/12/22 15:19:47;;;;;;;;;;;;;;;;;;4454536;32;19941;-77
2022/12/22 15:22:12;;;;;;;;;;;;;;;;;;4454283;32;20345;-78
2022/12/22 15:24:37;;;;;;;;;;;;;;;;;;4454215;32;19989;-80
2022/12/22 15:27:03;;;;;;;;;;;;;;;;;;4455880;32;19936;-81
2022/12/22 15:29:28;;;;;;;;;;;;;;;;;;4440395;32;19984;-80
2022/12/22 15:31:53;;;;;;;;;;;;;;;;;;4454777;32;19974;-81
2022/12/22 15:34:18;;;;;;;;;;;;;;;;;;4455725;32;19932;-81
2022/12/22 15:36:43;;;;;;;;;;;;;;;;;;4453519;32;19936;-80
2022/12/22 15:39:08;;;;;;;;;;;;;;;;;;4454275;32;20273;-80
2022/12/22 15:41:33;;;;;;;;;;;;;;;;;;4439060;32;19936;-78
2022/12/22 15:43:58;;;;;;;;;;;;;;;;;;4438892;32;20000;-78
2022/12/22 15:46:23;;;;;;;;;;;;;;;;;;4453377;32;20261;-78
2022/12/22 15:48:48;;;;;;;;;;;;;;;;;;4453959;32;19932;-79
2022/12/22 15:51:14;;;;;;;;;;;;;;;;;;4454722;32;19937;-80
2022/12/22 15:53:39;;;;;;;;;;;;;;;;;;4453847;32;19953;-80
2022/12/22 15:56:04;;;;;;;;;;;;;;;;;;4454010;32;19949;-81
2022/12/22 15:58:29;;;;;;;;;;;;;;;;;;4453998;32;19996;-81
2022/12/22 16:00:54;;;;;;;;;;;;;;;;;;4454403;32;19936;-81
2022/12/22 16:03:19;;;;;;;;;;;;;;;;;;4453582;32;19964;-82
2022/12/22 16:05:44;;;;;;;;;;;;;;;;;;4455217;32;19932;-81
2022/12/22 16:08:09;;;;;;;;;;;;;;;;;;4441235;32;20035;-82
2022/12/22 16:10:35;;;;;;;;;;;;;;;;;;4455210;32;20269;-81
2022/12/22 16:13:00;;;;;;;;;;;;;;;;;;4454475;32;20210;-83
2022/12/22 16:15:25;;;;;;;;;;;;;;;;;;4440360;32;19944;-83
2022/12/22 16:17:51;;;;;;;;;;;;;;;;;;4440284;32;19953;-81
2022/12/22 16:20:17;;;;;;;;;;;;;;;;;;4453832;32;19944;-81
2022/12/22 16:22:42;;;;;;;;;;;;;;;;;;4441672;32;19948;-81
2022/12/22 16:25:07;;;;;;;;;;;;;;;;;;4440998;32;19980;-82
2022/12/22 16:27:32;;;;;;;;;;;;;;;;;;4454333;32;19937;-82
2022/12/22 16:29:57;;;;;;;;;;;;;;;;;;4440616;32;19951;-82
2022/12/22 16:32:22;;;;;;;;;;;;;;;;;;4440113;32;20242;-80
2022/12/22 16:34:47;;;;;;;;;;;;;;;;;;4455007;32;19950;-82
2022/12/22 16:37:12;;;;;;;;;;;;;;;;;;4453442;32;19950;-81
2022/12/22 16:39:38;;;;;;;;;;;;;;;;;;4454150;32;19948;-82
2022/12/22 16:42:03;;;;;;;;;;;;;;;;;;4453752;32;19933;-82
2022/12/22 16:44:28;;;;;;;;;;;;;;;;;;4453428;32;20274;-82
2022/12/22 16:46:53;;;;;;;;;;;;;;;;;;4453476;32;19943;-81
2022/12/22 16:49:18;;;;;;;;;;;;;;;;;;4453661;32;20039;-81
2022/12/22 16:51:43;;;;;;;;;;;;;;;;;;4453421;32;19932;-81
2022/12/22 16:54:08;;;;;;;;;;;;;;;;;;4438834;32;20354;-80
2022/12/22 16:56:34;;;;;;;;;;;;;;;;;;4451868;32;19951;-81
2022/12/22 16:59:01;;;;;;;;;;;;;;;;;;4452989;32;19933;-81
2022/12/22 17:01:26;;;;;;;;;;;;;;;;;;4438899;32;19928;-80
2022/12/22 17:03:51;;;;;;;;;;;;;;;;;;4454407;32;19954;-80
2022/12/22 17:06:17;;;;;;;;;;;;;;;;;;4453286;32;20283;-78
2022/12/22 17:08:42;;;;;;;;;;;;;;;;;;4438964;32;19947;-80
2022/12/22 17:11:07;;;;;;;;;;;;;;;;;;4452373;32;19933;-79
2022/12/22 17:13:32;;;;;;;;;;;;;;;;;;4453659;32;19955;-79
2022/12/22 17:15:58;;;;;;;;;;;;;;;;;;4439657;32;19951;-79
2022/12/22 17:18:23;;;;;;;;;;;;;;;;;;4456381;32;19933;-80
2022/12/22 17:20:48;;;;;;;;;;;;;;;;;;4445877;32;19969;-80
2022/12/22 17:23:13;;;;;;;;;;;;;;;;;;4458016;32;19965;-80
2022/12/22 17:25:38;;;;;;;;;;;;;;;;;;4446687;32;19986;-80
2022/12/22 17:28:03;;;;;;;;;;;;;;;;;;4447540;32;19937;-81
2022/12/22 17:30:29;;;;;;;;;;;;;;;;;;4454804;32;19933;-79
2022/12/22 17:32:54;;;;;;;;;;;;;;;;;;4440177;32;19936;-79
2022/12/22 17:35:19;;;;;;;;;;;;;;;;;;4456334;32;19959;-78
2022/12/22 17:37:44;;;;;;;;;;;;;;;;;;4459109;32;19943;-79
2022/12/22 17:40:09;;;;;;;;;;;;;;;;;;4445128;32;19945;-79
2022/12/22 17:42:34;;;;;;;;;;;;;;;;;;4459451;32;19944;-77
2022/12/22 17:44:59;;;;;;;;;;;;;;;;;;4461024;32;19992;-78
2022/12/22 17:47:24;;;;;;;;;;;;;;;;;;4462808;32;20345;-77
2022/12/22 17:49:49;;;;;;;;;;;;;;;;;;4465000;32;19937;-78
2022/12/22 17:52:14;;;;;;;;;;;;;;;;;;4466659;32;19948;-78
2022/12/22 17:54:40;;;;;;;;;;;;;;;;;;4453151;32;20610;-78
2022/12/22 17:57:05;;;;;;;;;;;;;;;;;;4465746;32;19950;-79
2022/12/22 17:59:30;;;;;;;;;;;;;;;;;;4466938;32;19960;-78
2022/12/22 18:01:55;;;;;;;;;;;;;;;;;;4465990;32;19974;-80
2022/12/22 18:04:20;;;;;;;;;;;;;;;;;;4465404;32;19944;-81
2022/12/22 18:06:45;;;;;;;;;;;;;;;;;;4462954;32;19944;-79
2022/12/22 18:09:11;;;;;;;;;;;;;;;;;;4458994;32;19989;-80
2022/12/22 18:11:36;;;;;;;;;;;;;;;;;;4444456;32;19941;-80
2022/12/22 18:14:01;;;;;;;;;;;;;;;;;;4458751;32;19936;-80
2022/12/22 18:16:27;;;;;;;;;;;;;;;;;;4456175;32;19944;-80
2022/12/22 18:18:52;;;;;;;;;;;;;;;;;;4456682;32;20269;-80
2022/12/22 18:21:17;;;;;;;;;;;;;;;;;;4458571;32;19969;-80
2022/12/22 18:23:42;;;;;;;;;;;;;;;;;;4459520;32;19932;-79
2022/12/22 18:26:08;;;;;;;;;;;;;;;;;;4460591;32;20211;-79
2022/12/22 18:28:33;;;;;;;;;;;;;;;;;;4460599;32;19936;-80
2022/12/22 18:30:58;;;;;;;;;;;;;;;;;;4459696;32;19963;-81
2022/12/22 18:33:23;;;;;;;;;;;;;;;;;;4459342;32;19936;-80
2022/12/22 18:35:49;;;;;;;;;;;;;;;;;;4458652;32;20358;-80
2022/12/22 18:38:14;;;;;;;;;;;;;;;;;;4444774;32;19944;-82
2022/12/22 18:40:39;;;;;;;;;;;;;;;;;;4460043;32;19932;-82
2022/12/22 18:43:04;;;;;;;;;;;;;;;;;;4459290;32;19942;-82
2022/12/22 18:45:29;;;;;;;;;;;;;;;;;;4458472;32;19933;-81
2022/12/22 18:47:54;;;;;;;;;;;;;;;;;;4459313;32;19947;-82
2022/12/22 18:50:19;;;;;;;;;;;;;;;;;;4459844;32;19936;-82
2022/12/22 18:52:45;;;;;;;;;;;;;;;;;;4446663;32;19936;-81
2022/12/22 18:55:10;;;;;;;;;;;;;;;;;;4446702;32;19955;-82
2022/12/22 18:57:35;;;;;;;;;;;;;;;;;;4446280;32;20039;-82
2022/12/22 19:00:00;;;;;;;;;;;;;;;;;;4459025;32;19968;-83
2022/12/22 19:02:25;;;;;;;;;;;;;;;;;;4459474;32;19946;-81
2022/12/22 19:04:50;;;;;;;;;;;;;;;;;;4459433;32;19968;-81
2022/12/22 19:07:15;;;;;;;;;;;;;;;;;;4444875;32;19996;-82
2022/12/22 19:09:41;;;;;;;;;;;;;;;;;;4443820;32;19936;-81
2022/12/22 19:12:06;;;;;;;;;;;;;;;;;;4442281;32;19939;-81
2022/12/22 19:14:31;;;;;;;;;;;;;;;;;;4455338;32;19989;-83
2022/12/22 19:16:56;;;;;;;;;;;;;;;;;;4441564;32;19949;-82
2022/12/22 19:19:22;;;;;;;;;;;;;;;;;;4444059;32;19951;-83
2022/12/22 19:21:48;;;;;;;;;;;;;;;;;;4456605;32;20255;-81
2022/12/22 19:24:13;;;;;;;;;;;;;;;;;;4442571;32;19940;-83
2022/12/22 19:26:38;;;;;;;;;;;;;;;;;;4458129;32;19967;-82
2022/12/22 19:29:03;;;;;;;;;;;;;;;;;;4443008;32;19983;-82
2022/12/22 19:31:28;;;;;;;;;;;;;;;;;;4456748;32;20288;-83
2022/12/22 19:33:53;;;;;;;;;;;;;;;;;;4441715;32;19973;-82
2022/12/22 19:36:20;;;;;;;;;;;;;;;;;;4442522;32;19940;-81
2022/12/22 19:38:45;;;;;;;;;;;;;;;;;;4457818;32;19981;-81
2022/12/22 19:41:10;;;;;;;;;;;;;;;;;;4456947;32;19964;-82
2022/12/22 19:43:35;;;;;;;;;;;;;;;;;;4441345;32;20319;-80
2022/12/22 19:46:01;;;;;;;;;;;;;;;;;;4452332;32;20368;-79
2022/12/22 19:48:26;;;;;;;;;;;;;;;;;;4438577;32;19937;-81
2022/12/22 19:50:51;;;;;;;;;;;;;;;;;;4455206;32;19937;-82
2022/12/22 19:53:16;;;;;;;;;;;;;;;;;;4453085;32;20327;-81
2022/12/22 19:55:41;;;;;;;;;;;;;;;;;;4451306;32;19983;-81
2022/12/22 19:58:06;;;;;;;;;;;;;;;;;;4451294;32;19936;-80
2022/12/22 20:00:31;;;;;;;;;;;;;;;;;;4438105;32;19936;-81
2022/12/22 20:02:56;;;;;;;;;;;;;;;;;;4440188;32;19936;-79
2022/12/22 20:05:22;;;;;;;;;;;;;;;;;;4452500;32;19969;-79
2022/12/22 20:07:47;;;;;;;;;;;;;;;;;;4451743;32;19970;-80
2022/12/22 20:10:12;;;;;;;;;;;;;;;;;;4450014;32;19957;-81